Time;durP1;ratioP1;P1;durP2;ratioP2;P2;SDS_P1;SDS_P2;PMS_P1;PMS_P2;Temp;Humidity;BMP_temperature;BMP_pressure;BME280_temperature;BME280_humidity;BME280_pressure;Samples;Min_cycle;Max_cycle;Signal;HPM_P1;HPM_P2
2022/01/22 00:01:03;;;;;;;14.10;6.03;;;;;;;5.74;100.00;102461.56;9995874;29;20109;-70
2022/01/22 00:06:00;;;;;;;12.40;4.80;;;;;;;5.79;100.00;102460.84;10004834;29;20058;-69
2022/01/22 00:10:57;;;;;;;11.63;4.28;;;;;;;5.75;100.00;102467.81;9994641;29;20145;-70
2022/01/22 00:15:53;;;;;;;8.88;3.35;;;;;;;5.79;100.00;102469.78;9996179;29;20044;-69
2022/01/22 00:20:50;;;;;;;9.13;2.90;;;;;;;5.75;100.00;102474.06;9994888;29;20566;-69
2022/01/22 00:25:47;;;;;;;12.23;4.10;;;;;;;5.85;100.00;102485.13;9996545;29;20052;-69
2022/01/22 00:30:43;;;;;;;8.73;3.08;;;;;;;5.83;100.00;102481.81;9994127;29;20043;-69
2022/01/22 00:35:40;;;;;;;12.48;3.42;;;;;;;5.86;100.00;102480.50;9994009;29;20148;-70
2022/01/22 00:40:36;;;;;;;11.82;2.58;;;;;;;5.85;100.00;102484.31;9994388;29;20051;-70
2022/01/22 00:45:33;;;;;;;11.82;2.97;;;;;;;5.87;100.00;102487.56;9999772;29;20071;-71
2022/01/22 00:50:30;;;;;;;10.23;2.45;;;;;;;5.75;100.00;102484.91;9994207;29;20060;-68
2022/01/22 00:55:26;;;;;;;10.57;2.35;;;;;;;5.78;100.00;102489.03;9994666;29;20075;-68
2022/01/22 01:00:23;;;;;;;11.30;3.03;;;;;;;5.84;100.00;102488.06;10007602;29;20135;-68
2022/01/22 01:05:19;;;;;;;11.68;2.78;;;;;;;5.84;100.00;102486.16;9993769;29;20122;-67
2022/01/22 01:10:19;;;;;;;12.68;2.67;;;;;;;5.79;100.00;102485.25;10018200;29;20072;-68
2022/01/22 01:36:05;;;;;;;5.90;2.78;;;;;;;5.80;100.00;102497.75;10014915;29;20044;-69
2022/01/22 01:41:09;;;;;;;9.82;2.63;;;;;;;5.73;100.00;102502.50;10001043;29;20135;-69
2022/01/22 01:46:06;;;;;;;10.80;2.88;;;;;;;5.72;100.00;102504.41;10007069;29;20040;-69
2022/01/22 01:51:02;;;;;;;8.82;2.90;;;;;;;5.78;100.00;102516.16;10009476;29;20586;-69
2022/01/22 02:00:56;;;;;;;8.75;2.97;;;;;;;5.77;100.00;102536.25;10002290;29;20082;-68
2022/01/22 02:05:54;;;;;;;12.68;3.97;;;;;;;5.74;100.00;102539.44;10001248;29;20048;-69
2022/01/22 02:10:58;;;;;;;10.02;3.38;;;;;;;5.79;100.00;102540.38;10002360;29;20052;-71
2022/01/22 02:26:25;;;;;;;11.75;4.13;;;;;;;5.74;100.00;102551.13;10002997;29;20715;-69
2022/01/22 02:31:36;;;;;;;14.93;4.45;;;;;;;5.67;100.00;102555.88;9998612;29;20712;-69
2022/01/22 02:36:43;;;;;;;14.40;4.60;;;;;;;5.78;100.00;102575.88;9988496;29;20431;-70
2022/01/22 02:41:46;;;;;;;15.15;4.40;;;;;;;5.67;100.00;102574.88;9966571;29;20463;-70
2022/01/22 02:46:45;;;;;;;13.93;4.60;;;;;;;5.78;100.00;102576.72;9995306;29;20064;-69
2022/01/22 02:51:42;;;;;;;14.57;5.03;;;;;;;5.80;100.00;102584.63;9996259;29;20131;-70
2022/01/22 02:56:38;;;;;;;18.52;5.45;;;;;;;5.80;100.00;102590.03;9997716;29;20152;-70
2022/01/22 03:01:35;;;;;;;15.82;4.65;;;;;;;5.79;100.00;102580.28;10016917;29;20087;-69
2022/01/22 03:06:31;;;;;;;14.32;5.00;;;;;;;5.86;100.00;102591.81;10001325;29;20472;-69
2022/01/22 03:11:30;;;;;;;17.92;5.35;;;;;;;5.83;100.00;102595.84;9999752;29;20510;-71
2022/01/22 03:21:35;;;;;;;15.80;4.72;;;;;;;5.86;100.00;102600.78;10007809;29;20126;-71
2022/01/22 03:31:48;;;;;;;16.13;4.82;;;;;;;5.89;100.00;102604.91;9996780;29;20079;-69
2022/01/22 03:36:44;;;;;;;16.38;5.25;;;;;;;5.94;100.00;102601.47;10003081;29;20495;-69
2022/01/22 03:41:41;;;;;;;13.43;5.40;;;;;;;5.85;100.00;102606.47;10013974;29;20518;-69
2022/01/22 03:46:38;;;;;;;13.88;4.00;;;;;;;5.98;100.00;102606.19;10011653;29;20499;-69
2022/01/22 03:51:34;;;;;;;17.75;5.25;;;;;;;6.00;100.00;102611.41;10003029;29;20075;-69
2022/01/22 03:56:31;;;;;;;13.10;4.75;;;;;;;5.92;100.00;102604.44;10009156;29;20138;-69
2022/01/22 04:11:32;;;;;;;14.93;4.97;;;;;;;5.95;100.00;102636.56;10007868;29;20048;-70
2022/01/22 04:16:30;;;;;;;13.65;4.60;;;;;;;5.92;100.00;102631.59;10002797;29;20095;-70
2022/01/22 04:26:52;;;;;;;12.27;4.10;;;;;;;5.90;100.00;102633.72;10011517;29;20076;-69
2022/01/22 04:31:49;;;;;;;14.68;5.63;;;;;;;5.92;100.00;102645.16;9997180;29;20075;-69
2022/01/22 04:36:46;;;;;;;15.18;6.28;;;;;;;5.91;100.00;102636.16;10014552;29;20131;-69
2022/01/22 04:41:42;;;;;;;15.07;5.22;;;;;;;5.87;100.00;102645.03;10006503;29;20040;-69
2022/01/22 04:56:59;;;;;;;13.23;4.78;;;;;;;5.86;100.00;102648.81;10021547;29;20044;-69
2022/01/22 05:01:56;;;;;;;16.02;5.80;;;;;;;5.81;100.00;102651.44;10004736;29;20052;-69
2022/01/22 05:06:52;;;;;;;16.40;5.47;;;;;;;5.88;100.00;102646.69;10009393;29;20520;-69
2022/01/22 05:11:49;;;;;;;20.58;6.60;;;;;;;5.87;100.00;102651.31;10003828;29;20044;-69
2022/01/22 05:16:46;;;;;;;19.45;6.80;;;;;;;5.87;100.00;102661.31;10013446;29;20139;-69
2022/01/22 05:21:44;;;;;;;20.48;8.68;;;;;;;5.92;100.00;102658.75;10003493;29;20063;-69
2022/01/22 05:26:51;;;;;;;23.13;7.85;;;;;;;5.96;100.00;102659.91;10019314;29;20052;-69
2022/01/22 05:37:05;;;;;;;26.73;7.93;;;;;;;5.88;100.00;102660.28;10015481;29;20114;-67
2022/01/22 05:42:05;;;;;;;21.90;7.82;;;;;;;5.93;100.00;102654.94;10019222;29;20055;-67
2022/01/22 05:47:05;;;;;;;24.70;8.43;;;;;;;5.93;100.00;102657.66;10000482;29;20075;-68
2022/01/22 05:52:04;;;;;;;24.65;8.82;;;;;;;5.90;100.00;102674.44;10002520;29;20052;-68
2022/01/22 06:02:32;;;;;;;24.42;9.60;;;;;;;5.92;100.00;102677.75;9980999;29;20060;-68
2022/01/22 06:07:29;;;;;;;22.77;9.07;;;;;;;6.00;100.00;102688.25;10013466;29;20051;-68
2022/01/22 06:12:57;;;;;;;19.23;7.95;;;;;;;5.95;100.00;102685.44;10006460;29;20582;-68
2022/01/22 06:17:54;;;;;;;25.10;7.93;;;;;;;5.86;100.00;102697.69;10011304;29;20427;-68
2022/01/22 06:22:50;;;;;;;16.88;8.25;;;;;;;5.82;100.00;102701.94;10001821;29;20056;-70
2022/01/22 06:27:47;;;;;;;20.25;8.15;;;;;;;5.79;100.00;102697.00;10016710;29;20141;-70
2022/01/22 06:32:43;;;;;;;24.15;10.18;;;;;;;5.79;100.00;102697.00;10020576;29;20080;-70
2022/01/22 06:37:40;;;;;;;21.05;9.65;;;;;;;5.68;100.00;102706.78;9988345;29;20045;-69
2022/01/22 06:42:36;;;;;;;22.83;10.00;;;;;;;5.76;100.00;102711.03;9994658;29;20171;-70
2022/01/22 06:47:33;;;;;;;23.50;10.90;;;;;;;5.79;100.00;102724.13;10014618;29;20207;-69
2022/01/22 06:52:30;;;;;;;22.13;8.85;;;;;;;5.76;100.00;102735.47;10006951;29;20075;-68
2022/01/22 06:57:27;;;;;;;30.65;11.20;;;;;;;5.82;100.00;102739.94;10008803;29;20083;-71
2022/01/22 07:02:23;;;;;;;31.75;12.63;;;;;;;5.80;100.00;102739.34;10004550;29;20047;-71
2022/01/22 07:07:20;;;;;;;34.95;13.40;;;;;;;5.69;100.00;102736.41;10005697;29;20099;-71
2022/01/22 07:12:17;;;;;;;37.92;15.15;;;;;;;5.73;100.00;102735.94;10008411;29;20135;-70
2022/01/22 07:17:13;;;;;;;36.97;14.57;;;;;;;5.69;100.00;102730.97;9995015;29;20426;-71
2022/01/22 07:22:32;;;;;;;30.42;14.07;;;;;;;5.64;100.00;102740.88;10000307;29;20059;-71
2022/01/22 07:27:26;;;;;;;33.70;14.90;;;;;;;5.61;100.00;102744.88;9998816;29;20060;-72
2022/01/22 07:32:30;;;;;;;35.05;15.30;;;;;;;5.63;100.00;102748.19;10004949;29;20139;-72
2022/01/22 07:37:27;;;;;;;33.90;14.88;;;;;;;5.56;100.00;102750.19;9996379;29;20551;-71
2022/01/22 07:42:23;;;;;;;33.78;15.57;;;;;;;5.55;100.00;102762.13;9987274;29;20060;-71
2022/01/22 07:47:20;;;;;;;36.63;15.40;;;;;;;5.46;100.00;102763.53;10002432;29;20047;-72
2022/01/22 07:52:17;;;;;;;28.80;13.05;;;;;;;5.56;100.00;102769.19;9997832;29;20131;-71
2022/01/22 07:57:14;;;;;;;33.83;14.88;;;;;;;5.66;100.00;102769.47;10003412;29;20046;-71
2022/01/22 08:02:13;;;;;;;30.95;14.75;;;;;;;5.66;100.00;102766.75;10019617;29;20048;-71
2022/01/22 08:07:16;;;;;;;27.77;11.63;;;;;;;5.60;100.00;102770.38;10003619;29;20079;-71
2022/01/22 08:12:12;;;;;;;28.50;11.30;;;;;;;5.66;100.00;102769.47;10012962;29;20626;-71
2022/01/22 08:17:10;;;;;;;27.40;11.95;;;;;;;5.68;100.00;102772.72;10000928;29;20060;-71
2022/01/22 08:22:06;;;;;;;30.65;15.35;;;;;;;5.76;100.00;102778.91;10003663;29;20052;-71
2022/01/22 08:37:03;;;;;;;29.58;13.07;;;;;;;5.85;100.00;102785.66;10010005;29;20083;-71
2022/01/22 08:41:59;;;;;;;27.48;12.23;;;;;;;5.79;100.00;102789.28;9995243;29;20585;-71
2022/01/22 08:46:57;;;;;;;21.60;10.30;;;;;;;5.87;100.00;102797.06;9991560;29;20111;-71
2022/01/22 08:51:53;;;;;;;22.73;9.73;;;;;;;5.87;100.00;102791.63;9992235;29;20052;-71
2022/01/22 08:56:50;;;;;;;23.25;9.63;;;;;;;5.91;100.00;102798.25;10000103;29;20119;-71
2022/01/22 09:01:48;;;;;;;26.52;10.07;;;;;;;5.89;100.00;102800.38;9995377;29;20051;-71
2022/01/22 09:06:45;;;;;;;20.27;8.02;;;;;;;5.91;100.00;102804.50;10016126;29;20527;-71
2022/01/22 09:11:45;;;;;;;13.93;7.03;;;;;;;5.90;100.00;102807.47;10003239;29;20127;-71
2022/01/22 09:16:42;;;;;;;17.92;7.00;;;;;;;6.03;100.00;102811.88;9999537;29;20391;-71
2022/01/22 09:21:43;;;;;;;18.63;7.68;;;;;;;5.95;100.00;102818.47;9994926;29;20060;-71
2022/01/22 09:26:39;;;;;;;21.33;7.97;;;;;;;6.02;100.00;102824.63;9999593;29;20044;-71
2022/01/22 09:31:36;;;;;;;17.38;6.38;;;;;;;5.97;100.00;102829.94;9994911;29;20522;-70
2022/01/22 09:36:33;;;;;;;12.65;6.25;;;;;;;5.92;100.00;102829.78;10003181;29;20059;-71
2022/01/22 09:41:31;;;;;;;18.83;7.45;;;;;;;5.93;100.00;102836.88;9969162;29;20044;-72
2022/01/22 09:46:46;;;;;;;19.50;7.55;;;;;;;5.97;100.00;102856.28;10016561;29;20052;-71
2022/01/22 09:51:44;;;;;;;14.85;6.13;;;;;;;5.98;100.00;102847.06;10002125;29;20048;-71
2022/01/22 09:56:44;;;;;;;18.50;5.55;;;;;;;5.98;100.00;102847.88;10004909;29;20570;-71
2022/01/22 10:01:42;;;;;;;16.98;6.07;;;;;;;6.08;100.00;102852.72;10001895;29;20104;-71
2022/01/22 10:06:50;;;;;;;14.32;5.18;;;;;;;6.00;100.00;102851.19;10042956;29;20114;-71
2022/01/22 10:11:47;;;;;;;15.80;6.00;;;;;;;6.10;100.00;102848.72;10030769;29;20052;-71
2022/01/22 10:16:46;;;;;;;15.45;5.25;;;;;;;6.30;100.00;102847.53;10015295;29;20071;-71
2022/01/22 10:21:57;;;;;;;17.63;4.95;;;;;;;6.27;100.00;102845.31;10017613;29;20048;-71
2022/01/22 10:27:33;;;;;;;14.88;5.43;;;;;;;6.22;100.00;102842.44;10008169;29;20075;-71
2022/01/22 10:32:47;;;;;;;15.13;6.57;;;;;;;6.27;100.00;102850.75;10012067;29;20459;-71
2022/01/22 10:37:44;;;;;;;13.20;5.32;;;;;;;6.34;100.00;102843.28;9983471;29;20100;-71
2022/01/22 10:42:41;;;;;;;11.55;4.63;;;;;;;6.41;100.00;102846.72;9986633;29;20079;-71
2022/01/22 10:47:37;;;;;;;12.60;6.55;;;;;;;6.38;100.00;102852.59;10007036;29;20099;-71
2022/01/22 10:52:51;;;;;;;13.10;5.85;;;;;;;6.37;100.00;102839.28;10010594;29;20072;-72
2022/01/22 10:58:08;;;;;;;15.70;6.13;;;;;;;6.41;100.00;102845.91;10002319;29;20503;-71
2022/01/22 11:03:19;;;;;;;18.08;7.53;;;;;;;6.26;100.00;102839.03;10009306;29;20126;-71
2022/01/22 11:08:16;;;;;;;16.20;8.02;;;;;;;6.21;100.00;102851.69;10006403;29;20101;-71
2022/01/22 11:13:13;;;;;;;21.58;9.85;;;;;;;6.21;100.00;102862.53;10005791;29;20937;-71
2022/01/22 11:18:11;;;;;;;18.63;7.68;;;;;;;6.31;100.00;102857.34;10005380;29;20096;-72
2022/01/22 11:23:08;;;;;;;13.93;7.68;;;;;;;6.27;100.00;102864.31;10003065;29;20098;-72
2022/01/22 11:28:05;;;;;;;20.15;8.10;;;;;;;6.35;100.00;102858.53;10003623;29;20059;-71
2022/01/22 11:33:10;;;;;;;14.27;6.63;;;;;;;6.35;100.00;102855.81;10006856;29;20126;-70
2022/01/22 11:38:10;;;;;;;12.95;5.30;;;;;;;6.36;100.00;102853.91;10001158;29;20466;-72
2022/01/22 11:43:09;;;;;;;8.82;3.38;;;;;;;6.26;100.00;102859.94;10005937;29;20139;-72
2022/01/22 11:48:18;;;;;;;8.95;4.18;;;;;;;6.29;100.00;102859.47;10000215;29;20103;-72
2022/01/22 11:53:29;;;;;;;7.10;3.53;;;;;;;6.27;100.00;102867.03;10001896;29;20048;-71
2022/01/22 11:58:26;;;;;;;8.60;4.03;;;;;;;6.20;100.00;102866.34;10004110;29;20478;-72
2022/01/22 12:03:22;;;;;;;7.50;4.10;;;;;;;6.29;100.00;102870.34;10018660;29;20063;-72
2022/01/22 12:09:26;;;;;;;11.40;6.05;;;;;;;6.32;100.00;102875.31;10003253;29;20071;-72
2022/01/22 12:14:48;;;;;;;8.50;5.78;;;;;;;6.37;100.00;102867.25;9990615;29;20730;-71
2022/01/22 12:20:17;;;;;;;9.43;5.90;;;;;;;6.28;100.00;102876.84;10007779;29;20661;-70
2022/01/22 12:25:08;;;;;;;13.73;6.47;;;;;;;6.35;100.00;102863.94;10019176;29;20123;-71
2022/01/22 12:30:05;;;;;;;10.20;6.53;;;;;;;6.33;100.00;102863.34;10005174;29;20131;-71
2022/01/22 12:35:07;;;;;;;9.82;5.90;;;;;;;6.37;100.00;102874.59;10014466;29;20059;-69
2022/01/22 12:40:06;;;;;;;10.93;5.50;;;;;;;6.31;100.00;102868.19;10000149;29;20056;-71
2022/01/22 12:45:07;;;;;;;9.45;4.50;;;;;;;6.38;100.00;102857.22;10003496;29;20107;-71
2022/01/22 12:50:07;;;;;;;6.95;4.15;;;;;;;6.43;100.00;102866.31;9999870;29;20079;-71
2022/01/22 12:55:16;;;;;;;8.70;4.22;;;;;;;6.53;100.00;102861.09;10016023;29;20604;-71
2022/01/22 13:00:27;;;;;;;10.32;3.70;;;;;;;6.72;100.00;102852.81;9999259;29;20123;-72
2022/01/22 13:05:28;;;;;;;6.13;2.78;;;;;;;6.77;100.00;102850.19;10003627;29;20056;-70
2022/01/22 13:10:32;;;;;;;4.72;1.95;;;;;;;6.64;100.00;102855.91;9997870;29;20044;-70
2022/01/22 13:15:30;;;;;;;7.07;3.30;;;;;;;6.81;100.00;102856.00;10009192;29;20567;-71
2022/01/22 13:20:32;;;;;;;8.73;2.78;;;;;;;6.98;100.00;102846.00;10003026;29;20086;-69
2022/01/22 13:25:28;;;;;;;5.03;2.90;;;;;;;6.90;100.00;102855.38;10002801;29;20103;-70
2022/01/22 13:30:33;;;;;;;8.68;4.10;;;;;;;6.74;100.00;102862.38;10024190;29;20115;-70
2022/01/22 13:36:00;;;;;;;6.40;3.47;;;;;;;6.65;100.00;102857.56;10012660;29;20083;-70
2022/01/22 13:50:52;;;;;;;6.57;3.70;;;;;;;6.55;100.00;102873.66;10013217;29;20048;-69
2022/01/22 13:56:11;;;;;;;8.18;4.05;;;;;;;6.56;100.00;102864.41;10011332;29;20060;-70
2022/01/22 14:01:27;;;;;;;6.25;3.55;;;;;;;6.47;100.00;102866.66;10003358;29;20075;-70
2022/01/22 14:06:33;;;;;;;11.70;4.03;;;;;;;6.34;100.00;102873.19;10027229;29;20505;-70
2022/01/22 14:11:30;;;;;;;7.82;2.95;;;;;;;6.30;100.00;102877.44;10011241;29;20471;-66
2022/01/22 14:16:28;;;;;;;6.18;2.70;;;;;;;6.33;100.00;102876.94;10014930;29;20485;-71
2022/01/22 14:21:26;;;;;;;5.57;2.00;;;;;;;6.36;100.00;102873.78;10025975;29;20110;-71
2022/01/22 14:26:33;;;;;;;4.47;2.03;;;;;;;6.41;100.00;102873.06;10023172;29;20549;-71
2022/01/22 14:31:34;;;;;;;7.03;1.75;;;;;;;6.34;100.00;102878.63;10020689;29;20142;-71
2022/01/22 14:36:33;;;;;;;4.55;1.75;;;;;;;6.20;100.00;102863.63;10015285;29;20103;-71
2022/01/22 14:46:56;;;;;;;5.07;2.33;;;;;;;6.33;100.00;102866.06;10007376;29;20676;-71
2022/01/22 14:51:52;;;;;;;6.18;2.40;;;;;;;6.31;100.00;102879.91;9999395;29;20071;-71
2022/01/22 14:56:49;;;;;;;4.20;2.20;;;;;;;6.24;100.00;102883.78;10007453;29;20044;-71
2022/01/22 15:01:47;;;;;;;7.20;2.80;;;;;;;6.24;100.00;102873.78;10031471;29;20096;-71
2022/01/22 15:06:44;;;;;;;5.72;2.78;;;;;;;6.30;100.00;102877.44;10012045;29;21716;-71
2022/01/22 15:11:41;;;;;;;5.95;2.80;;;;;;;6.18;100.00;102890.19;10006852;29;20483;-72
2022/01/22 15:16:46;;;;;;;6.85;2.95;;;;;;;6.17;100.00;102883.06;10003605;29;20503;-73
2022/01/22 15:21:44;;;;;;;6.68;2.90;;;;;;;5.97;100.00;102881.53;10020514;29;20055;-73
2022/01/22 15:26:41;;;;;;;6.25;2.70;;;;;;;5.98;100.00;102896.75;10012535;29;20058;-72
2022/01/22 15:37:21;;;;;;;6.25;2.08;;;;;;;5.93;100.00;102912.88;10000625;29;20570;-71
2022/01/22 15:42:18;;;;;;;9.68;3.10;;;;;;;5.93;100.00;102910.19;10003525;29;20415;-71
2022/01/22 15:47:15;;;;;;;8.40;2.70;;;;;;;5.95;100.00;102907.28;10008685;29;20048;-72
2022/01/22 15:52:12;;;;;;;5.38;2.20;;;;;;;5.96;100.00;102919.78;10009196;29;20602;-72
2022/01/22 15:57:29;;;;;;;11.32;2.20;;;;;;;5.89;100.00;102919.84;10010365;29;20518;-71
2022/01/22 16:02:28;;;;;;;6.72;1.92;;;;;;;5.86;100.00;102931.19;10000739;29;20051;-71
2022/01/22 16:07:27;;;;;;;6.88;2.22;;;;;;;5.84;100.00;102933.28;10009117;29;20052;-69
2022/01/22 16:12:48;;;;;;;4.57;1.55;;;;;;;5.80;100.00;102934.81;10025937;29;20574;-69
2022/01/22 16:17:50;;;;;;;7.55;2.63;;;;;;;5.77;100.00;102932.56;10031037;28;20095;-69
2022/01/22 16:22:47;;;;;;;9.00;3.25;;;;;;;5.69;100.00;102936.44;10027633;29;20417;-68
2022/01/22 16:27:59;;;;;;;5.68;2.70;;;;;;;5.58;100.00;102946.19;10005851;29;20131;-68
2022/01/22 16:33:15;;;;;;;6.68;2.00;;;;;;;5.68;100.00;102946.44;10006951;29;20731;-68
2022/01/22 16:38:20;;;;;;;5.95;1.80;;;;;;;5.64;100.00;102956.13;10014848;29;20043;-68
2022/01/22 16:43:28;;;;;;;5.03;1.92;;;;;;;5.61;100.00;102967.41;9996866;29;20080;-68
2022/01/22 16:59:17;;;;;;;8.68;2.85;;;;;;;5.73;100.00;102963.94;10003811;29;20051;-69
2022/01/22 17:04:22;;;;;;;8.88;3.40;;;;;;;5.69;100.00;102964.41;9989050;29;20127;-66
2022/01/22 17:14:25;;;;;;;9.73;3.28;;;;;;;5.77;100.00;102965.13;10010714;29;20138;-65
2022/01/22 17:19:31;;;;;;;9.32;3.78;;;;;;;5.68;100.00;102973.59;10021193;29;20159;-65
2022/01/22 17:24:41;;;;;;;;;;;;;;;;;;;;;
2022/01/22 17:30:16;;;;;;;9.57;4.40;;;;;;;5.69;100.00;102977.97;10001474;29;20100;-65
2022/01/22 17:35:27;;;;;;;12.55;3.88;;;;;;;5.58;100.00;102976.03;10001219;29;20051;-65
2022/01/22 17:40:27;;;;;;;16.45;4.80;;;;;;;5.52;100.00;102967.97;10008047;29;20083;-65
2022/01/22 17:45:34;;;;;;;10.55;4.18;;;;;;;5.47;100.00;102979.50;9998008;29;20052;-65
2022/01/22 17:50:39;;;;;;;6.95;2.65;;;;;;;5.54;100.00;102979.44;9999164;29;20103;-66
2022/01/22 17:55:39;;;;;;;7.07;3.25;;;;;;;5.52;100.00;102984.25;9992961;29;20055;-72
2022/01/22 18:00:38;;;;;;;8.52;3.40;;;;;;;5.41;100.00;102994.00;10004382;29;20103;-69
2022/01/22 18:05:41;;;;;;;8.13;3.60;;;;;;;5.44;100.00;102988.13;9999724;29;20067;-69
2022/01/22 18:10:41;;;;;;;10.70;4.30;;;;;;;5.51;100.00;102994.28;10020021;29;20103;-66
2022/01/22 18:15:39;;;;;;;8.68;3.80;;;;;;;5.56;100.00;102986.28;10002036;29;20075;-67
2022/01/22 18:20:39;;;;;;;8.93;3.65;;;;;;;5.60;100.00;102982.06;10017417;29;20047;-71
2022/01/22 18:25:38;;;;;;;10.37;3.37;;;;;;;5.55;100.00;102986.53;10005790;29;20399;-66
2022/01/22 18:30:37;;;;;;;9.57;2.67;;;;;;;5.55;100.00;102991.97;10024223;29;20478;-65
2022/01/22 18:35:38;;;;;;;7.80;3.00;;;;;;;5.49;100.00;103007.25;10005525;29;20060;-65
2022/01/22 18:40:37;;;;;;;7.20;2.67;;;;;;;5.48;100.00;103000.19;10019810;29;20072;-65
2022/01/22 18:45:35;;;;;;;8.55;3.30;;;;;;;5.41;100.00;103010.28;10019863;29;20059;-66
2022/01/22 18:50:33;;;;;;;12.15;4.75;;;;;;;5.34;100.00;103014.94;10007232;29;20052;-66
2022/01/22 18:55:33;;;;;;;10.07;6.15;;;;;;;5.38;100.00;103016.16;10006996;29;20130;-66
2022/01/22 19:00:30;;;;;;;13.15;6.22;;;;;;;5.32;100.00;103008.94;10012533;29;20043;-66
2022/01/22 19:05:30;;;;;;;13.35;5.68;;;;;;;5.37;100.00;102998.22;10028031;29;20047;-66
2022/01/22 19:10:27;;;;;;;10.45;4.85;;;;;;;5.24;100.00;102983.78;10018386;29;20561;-65
2022/01/22 19:15:24;;;;;;;10.55;4.85;;;;;;;5.32;100.00;103003.50;10015205;29;20062;-65
2022/01/22 19:20:21;;;;;;;11.57;3.97;;;;;;;5.23;100.00;103006.50;10014162;29;20056;-66
2022/01/22 19:30:18;;;;;;;14.10;3.95;;;;;;;5.19;100.00;103008.00;10008896;29;20066;-66
2022/01/22 19:35:15;;;;;;;10.45;3.47;;;;;;;5.13;100.00;103014.34;10009046;29;20411;-66
2022/01/22 19:40:23;;;;;;;11.85;4.22;;;;;;;5.18;100.00;103005.53;10007622;29;20055;-66
2022/01/22 19:45:35;;;;;;;15.27;5.20;;;;;;;5.08;100.00;103008.75;10006556;29;20060;-66
2022/01/22 19:50:34;;;;;;;9.80;5.47;;;;;;;5.24;100.00;103016.31;10012345;29;20103;-66
2022/01/22 19:55:31;;;;;;;10.85;4.63;;;;;;;5.23;100.00;103009.22;10003694;29;20051;-67
2022/01/22 20:00:31;;;;;;;16.50;6.78;;;;;;;5.31;100.00;103007.25;10018517;29;20423;-66
2022/01/22 20:05:28;;;;;;;9.90;6.45;;;;;;;5.24;100.00;103023.59;9999502;29;20051;-66
2022/01/22 20:10:53;;;;;;;15.15;6.50;;;;;;;5.18;100.00;103028.06;10021374;29;20044;-67
2022/01/22 20:15:59;;;;;;;16.42;7.30;;;;;;;5.24;100.00;103032.59;10012368;29;20129;-65
2022/01/22 20:20:59;;;;;;;12.57;7.28;;;;;;;5.33;100.00;103035.81;10020786;29;20080;-66
2022/01/22 20:26:16;;;;;;;19.40;7.43;;;;;;;5.31;100.00;103037.09;10020961;29;20056;-66
2022/01/22 20:31:18;;;;;;;14.80;5.53;;;;;;;5.28;100.00;103044.63;9997451;29;20040;-66
2022/01/22 20:36:17;;;;;;;21.42;7.05;;;;;;;5.25;100.00;103041.56;10003452;29;20502;-66
2022/01/22 20:41:24;;;;;;;14.77;7.05;;;;;;;5.33;100.00;103026.84;10001109;29;20052;-67
2022/01/22 20:46:42;;;;;;;15.30;8.13;;;;;;;5.25;100.00;103023.38;10009770;29;20564;-67
2022/01/22 20:51:40;;;;;;;16.95;8.45;;;;;;;5.30;100.00;103035.44;9998209;29;20068;-67
2022/01/22 20:56:39;;;;;;;18.17;7.28;;;;;;;5.13;100.00;103041.47;10016835;29;20126;-67
2022/01/22 21:01:38;;;;;;;16.83;7.95;;;;;;;5.11;100.00;103046.28;10018132;29;20051;-66
2022/01/22 21:06:53;;;;;;;15.38;6.80;;;;;;;5.17;100.00;103039.94;10014098;29;20052;-67
2022/01/22 21:11:56;;;;;;;12.10;5.80;;;;;;;5.22;100.00;103050.13;10014580;29;20044;-66
2022/01/22 21:16:53;;;;;;;;;;;;;;;5.26;100.00;103057.59;10016669;29;20484;-66
2022/01/22 21:21:51;;;;;;;10.77;5.53;;;;;;;5.32;100.00;103055.06;9994891;29;19933;-65
2022/01/22 21:26:54;;;;;;;13.55;4.57;;;;;;;5.18;100.00;103055.19;10001610;29;20052;-66
2022/01/22 21:31:52;;;;;;;13.48;5.47;;;;;;;5.28;100.00;103068.22;9995640;29;20645;-64
2022/01/22 21:37:44;;;;;;;13.20;5.35;;;;;;;5.31;100.00;103075.91;10020313;29;20391;-65
2022/01/22 21:42:58;;;;;;;9.48;4.57;;;;;;;5.31;100.00;103085.94;10006929;29;20048;-66
2022/01/22 21:47:55;;;;;;;15.60;5.88;;;;;;;5.39;100.00;103099.22;10010697;29;20116;-66
2022/01/22 21:52:54;;;;;;;13.13;5.57;;;;;;;5.39;100.00;103075.63;10005928;29;20047;-66
2022/01/22 21:57:57;;;;;;;14.32;6.10;;;;;;;5.22;100.00;103078.09;10006899;29;20522;-63
2022/01/22 22:02:58;;;;;;;11.10;5.95;;;;;;;5.26;100.00;103073.84;10009531;29;20044;-63
2022/01/22 22:08:00;;;;;;;12.57;7.55;;;;;;;5.16;100.00;103070.84;10010096;29;20052;-64
2022/01/22 22:13:00;;;;;;;11.88;7.15;;;;;;;5.32;100.00;103071.31;10018037;29;20642;-65
2022/01/22 22:17:57;;;;;;;14.00;7.88;;;;;;;5.38;100.00;103064.97;10011478;29;20418;-65
2022/01/22 22:22:54;;;;;;;16.05;6.72;;;;;;;5.37;100.00;103068.75;10017566;29;20050;-68
2022/01/22 22:27:51;;;;;;;15.18;8.10;;;;;;;5.42;100.00;103066.19;10013917;29;20126;-68
2022/01/22 22:32:49;;;;;;;17.67;9.65;;;;;;;5.46;100.00;103079.09;10017326;29;20075;-65
2022/01/22 22:37:47;;;;;;;13.80;8.70;;;;;;;5.41;100.00;103084.38;10031683;29;20095;-66
2022/01/22 22:42:50;;;;;;;14.98;8.82;;;;;;;5.40;100.00;103071.84;10027503;29;20044;-65
2022/01/22 22:47:46;;;;;;;13.43;7.22;;;;;;;5.36;100.00;103067.94;10009063;29;20056;-65
2022/01/22 22:52:44;;;;;;;15.35;9.50;;;;;;;5.33;100.00;103078.41;9998755;29;20074;-63
2022/01/22 22:57:41;;;;;;;17.02;10.32;;;;;;;5.33;100.00;103083.81;10016267;29;20597;-63
2022/01/22 23:02:37;;;;;;;19.63;10.80;;;;;;;5.38;100.00;103094.81;10000360;29;20048;-63
2022/01/22 23:07:34;;;;;;;19.95;11.15;;;;;;;5.31;100.00;103099.50;10035142;29;20050;-63
2022/01/22 23:12:33;;;;;;;20.70;12.80;;;;;;;5.31;100.00;103091.34;10001934;29;20044;-63
2022/01/22 23:17:42;;;;;;;31.85;11.48;;;;;;;5.22;100.00;103083.53;10007264;29;20059;-63
2022/01/22 23:22:49;;;;;;;18.15;12.50;;;;;;;5.23;100.00;103079.75;9999793;29;20403;-62
2022/01/22 23:27:45;;;;;;;20.70;12.23;;;;;;;5.23;100.00;103068.88;10029336;29;20458;-63
2022/01/22 23:33:06;;;;;;;21.23;12.55;;;;;;;5.27;100.00;103080.97;9999780;29;20052;-63
